sensor_id;sensor_type;location;lat;lon;timestamp;temperature;humidity
26982;DHT22;14533;50.848;4.380;2022-09-16T00:01:19;16.60;99.90
26982;DHT22;14533;50.848;4.380;2022-09-16T00:03:46;16.60;99.90
26982;DHT22;14533;50.848;4.380;2022-09-16T00:06:23;16.50;99.90
26982;DHT22;14533;50.848;4.380;2022-09-16T00:08:50;16.50;99.90
26982;DHT22;14533;50.848;4.380;2022-09-16T00:11:17;16.50;99.90
26982;DHT22;14533;50.848;4.380;2022-09-16T00:13:43;16.40;99.90
26982;DHT22;14533;50.848;4.380;2022-09-16T00:16:12;16.40;99.90
26982;DHT22;14533;50.848;4.380;2022-09-16T00:18:39;16.50;99.90
26982;DHT22;14533;50.848;4.380;2022-09-16T00:21:09;16.50;99.90
26982;DHT22;14533;50.848;4.380;2022-09-16T00:23:35;16.40;99.90
26982;DHT22;14533;50.848;4.380;2022-09-16T00:26:02;16.40;99.90
26982;DHT22;14533;50.848;4.380;2022-09-16T00:28:29;16.30;99.90
26982;DHT22;14533;50.848;4.380;2022-09-16T00:30:58;16.20;99.90
26982;DHT22;14533;50.848;4.380;2022-09-16T00:33:24;16.10;99.90
26982;DHT22;14533;50.848;4.380;2022-09-16T00:35:50;16.10;99.90
26982;DHT22;14533;50.848;4.380;2022-09-16T00:38:15;16.20;99.90
26982;DHT22;14533;50.848;4.380;2022-09-16T00:40:48;16.20;99.90
26982;DHT22;14533;50.848;4.380;2022-09-16T00:43:16;16.40;99.90
26982;DHT22;14533;50.848;4.380;2022-09-16T00:45:51;16.40;99.90
26982;DHT22;14533;50.848;4.380;2022-09-16T00:48:22;16.20;99.90
26982;DHT22;14533;50.848;4.380;2022-09-16T00:50:53;16.30;99.90
26982;DHT22;14533;50.848;4.380;2022-09-16T00:53:23;16.20;99.90
26982;DHT22;14533;50.848;4.380;2022-09-16T00:55:51;16.30;99.90
26982;DHT22;14533;50.848;4.380;2022-09-16T00:58:20;16.20;99.90
26982;DHT22;14533;50.848;4.380;2022-09-16T01:00:48;16.30;99.90
26982;DHT22;14533;50.848;4.380;2022-09-16T01:03:15;16.20;99.90
26982;DHT22;14533;50.848;4.380;2022-09-16T01:05:40;16.20;99.90
26982;DHT22;14533;50.848;4.380;2022-09-16T01:08:07;16.10;99.90
26982;DHT22;14533;50.848;4.380;2022-09-16T01:10:32;16.00;99.90
26982;DHT22;14533;50.848;4.380;2022-09-16T01:13:05;16.00;99.90
26982;DHT22;14533;50.848;4.380;2022-09-16T01:15:46;16.00;99.90
26982;DHT22;14533;50.848;4.380;2022-09-16T01:35:06;15.70;99.90
26982;DHT22;14533;50.848;4.380;2022-09-16T01:40:15;15.60;99.90
26982;DHT22;14533;50.848;4.380;2022-09-16T01:45:50;15.80;99.90
26982;DHT22;14533;50.848;4.380;2022-09-16T01:48:38;15.70;99.90
26982;DHT22;14533;50.848;4.380;2022-09-16T01:53:44;15.60;99.90
26982;DHT22;14533;50.848;4.380;2022-09-16T01:56:19;15.60;99.90
26982;DHT22;14533;50.848;4.380;2022-09-16T01:58:48;15.60;99.90
26982;DHT22;14533;50.848;4.380;2022-09-16T02:01:30;15.60;99.90
26982;DHT22;14533;50.848;4.380;2022-09-16T02:04:03;15.60;99.90
26982;DHT22;14533;50.848;4.380;2022-09-16T02:06:31;15.60;99.90
26982;DHT22;14533;50.848;4.380;2022-09-16T02:09:05;15.60;99.90
26982;DHT22;14533;50.848;4.380;2022-09-16T02:11:32;15.60;99.90
26982;DHT22;14533;50.848;4.380;2022-09-16T02:14:28;15.60;99.90
26982;DHT22;14533;50.848;4.380;2022-09-16T02:17:01;15.70;99.90
26982;DHT22;14533;50.848;4.380;2022-09-16T02:19:35;15.70;99.90
26982;DHT22;14533;50.848;4.380;2022-09-16T02:22:14;15.70;99.90
26982;DHT22;14533;50.848;4.380;2022-09-16T02:24:44;15.80;99.90
26982;DHT22;14533;50.848;4.380;2022-09-16T02:27:15;15.70;99.90
26982;DHT22;14533;50.848;4.380;2022-09-16T02:29:56;15.60;99.90
26982;DHT22;14533;50.848;4.380;2022-09-16T02:32:25;15.70;99.90
26982;DHT22;14533;50.848;4.380;2022-09-16T02:34:53;15.60;99.90
26982;DHT22;14533;50.848;4.380;2022-09-16T02:37:34;15.60;99.90
26982;DHT22;14533;50.848;4.380;2022-09-16T02:40:04;15.60;99.90
26982;DHT22;14533;50.848;4.380;2022-09-16T02:42:33;15.70;99.90
26982;DHT22;14533;50.848;4.380;2022-09-16T02:44:59;15.70;99.90
26982;DHT22;14533;50.848;4.380;2022-09-16T02:47:58;15.60;99.90
26982;DHT22;14533;50.848;4.380;2022-09-16T02:50:36;15.70;99.90
26982;DHT22;14533;50.848;4.380;2022-09-16T02:53:28;15.80;99.90
26982;DHT22;14533;50.848;4.380;2022-09-16T02:56:19;15.80;99.90
26982;DHT22;14533;50.848;4.380;2022-09-16T02:58:48;15.60;99.90
26982;DHT22;14533;50.848;4.380;2022-09-16T03:01:18;15.50;99.90
26982;DHT22;14533;50.848;4.380;2022-09-16T03:03:45;15.50;99.90
26982;DHT22;14533;50.848;4.380;2022-09-16T03:06:20;15.50;99.90
26982;DHT22;14533;50.848;4.380;2022-09-16T03:08:47;15.50;99.90
26982;DHT22;14533;50.848;4.380;2022-09-16T03:27:56;15.20;99.90
26982;DHT22;14533;50.848;4.380;2022-09-16T03:30:26;15.20;99.90
26982;DHT22;14533;50.848;4.380;2022-09-16T03:33:11;15.20;99.90
26982;DHT22;14533;50.848;4.380;2022-09-16T03:35:43;15.10;99.90
26982;DHT22;14533;50.848;4.380;2022-09-16T03:38:11;15.10;99.90
26982;DHT22;14533;50.848;4.380;2022-09-16T03:40:38;15.10;99.90
26982;DHT22;14533;50.848;4.380;2022-09-16T03:43:16;15.10;99.90
26982;DHT22;14533;50.848;4.380;2022-09-16T03:45:44;15.00;99.90
26982;DHT22;14533;50.848;4.380;2022-09-16T03:48:11;15.00;99.90
26982;DHT22;14533;50.848;4.380;2022-09-16T03:50:38;15.00;99.90
26982;DHT22;14533;50.848;4.380;2022-09-16T03:53:09;15.10;99.90
26982;DHT22;14533;50.848;4.380;2022-09-16T03:55:35;15.20;99.90
26982;DHT22;14533;50.848;4.380;2022-09-16T03:58:02;15.10;99.90
26982;DHT22;14533;50.848;4.380;2022-09-16T04:00:28;15.20;99.90
26982;DHT22;14533;50.848;4.380;2022-09-16T04:02:55;15.00;99.90
26982;DHT22;14533;50.848;4.380;2022-09-16T04:05:20;15.10;99.90
26982;DHT22;14533;50.848;4.380;2022-09-16T04:07:50;15.30;99.90
26982;DHT22;14533;50.848;4.380;2022-09-16T04:10:16;15.30;99.90
26982;DHT22;14533;50.848;4.380;2022-09-16T04:12:41;15.40;99.90
26982;DHT22;14533;50.848;4.380;2022-09-16T04:15:09;15.30;99.90
26982;DHT22;14533;50.848;4.380;2022-09-16T04:17:35;15.30;99.90
26982;DHT22;14533;50.848;4.380;2022-09-16T04:20:02;15.30;99.90
26982;DHT22;14533;50.848;4.380;2022-09-16T04:22:29;15.20;99.90
26982;DHT22;14533;50.848;4.380;2022-09-16T04:24:55;15.20;99.90
26982;DHT22;14533;50.848;4.380;2022-09-16T04:27:21;15.10;99.90
26982;DHT22;14533;50.848;4.380;2022-09-16T04:29:51;15.10;99.90
26982;DHT22;14533;50.848;4.380;2022-09-16T04:32:16;15.10;99.90
26982;DHT22;14533;50.848;4.380;2022-09-16T04:34:42;15.10;99.90
26982;DHT22;14533;50.848;4.380;2022-09-16T04:37:09;15.10;99.90
26982;DHT22;14533;50.848;4.380;2022-09-16T04:39:36;15.20;99.90
26982;DHT22;14533;50.848;4.380;2022-09-16T04:42:02;15.20;99.90
26982;DHT22;14533;50.848;4.380;2022-09-16T04:44:29;15.30;99.90
26982;DHT22;14533;50.848;4.380;2022-09-16T04:46:55;15.30;99.90
26982;DHT22;14533;50.848;4.380;2022-09-16T04:49:21;15.30;99.90
26982;DHT22;14533;50.848;4.380;2022-09-16T04:51:46;15.20;99.90
26982;DHT22;14533;50.848;4.380;2022-09-16T04:54:14;15.10;99.90
26982;DHT22;14533;50.848;4.380;2022-09-16T04:56:41;15.00;99.90
26982;DHT22;14533;50.848;4.380;2022-09-16T04:59:06;14.90;99.90
26982;DHT22;14533;50.848;4.380;2022-09-16T05:01:37;14.90;99.90
26982;DHT22;14533;50.848;4.380;2022-09-16T05:04:04;14.90;99.90
26982;DHT22;14533;50.848;4.380;2022-09-16T05:06:33;14.90;99.90
26982;DHT22;14533;50.848;4.380;2022-09-16T05:09:00;14.90;99.90
26982;DHT22;14533;50.848;4.380;2022-09-16T05:11:29;15.00;99.90
26982;DHT22;14533;50.848;4.380;2022-09-16T05:13:59;15.10;99.90
26982;DHT22;14533;50.848;4.380;2022-09-16T05:16:25;15.10;99.90
26982;DHT22;14533;50.848;4.380;2022-09-16T05:18:54;14.90;99.90
26982;DHT22;14533;50.848;4.380;2022-09-16T05:21:22;14.90;99.90
26982;DHT22;14533;50.848;4.380;2022-09-16T05:23:48;14.80;99.90
26982;DHT22;14533;50.848;4.380;2022-09-16T05:26:20;14.90;99.90
26982;DHT22;14533;50.848;4.380;2022-09-16T05:28:47;14.90;99.90
26982;DHT22;14533;50.848;4.380;2022-09-16T05:31:20;14.80;99.90
26982;DHT22;14533;50.848;4.380;2022-09-16T05:33:59;14.90;99.90
26982;DHT22;14533;50.848;4.380;2022-09-16T05:36:27;14.90;99.90
26982;DHT22;14533;50.848;4.380;2022-09-16T05:38:53;14.90;99.90
26982;DHT22;14533;50.848;4.380;2022-09-16T05:41:18;14.70;99.90
26982;DHT22;14533;50.848;4.380;2022-09-16T05:43:44;14.90;99.90
26982;DHT22;14533;50.848;4.380;2022-09-16T05:46:16;15.00;99.90
26982;DHT22;14533;50.848;4.380;2022-09-16T05:48:42;15.00;99.90
26982;DHT22;14533;50.848;4.380;2022-09-16T05:51:09;15.00;99.90
26982;DHT22;14533;50.848;4.380;2022-09-16T05:53:36;14.80;99.90
26982;DHT22;14533;50.848;4.380;2022-09-16T05:56:04;14.70;99.90
26982;DHT22;14533;50.848;4.380;2022-09-16T05:58:31;14.90;99.90
26982;DHT22;14533;50.848;4.380;2022-09-16T06:01:22;14.90;99.90
26982;DHT22;14533;50.848;4.380;2022-09-16T06:03:48;15.10;99.90
26982;DHT22;14533;50.848;4.380;2022-09-16T06:06:27;15.20;99.90
26982;DHT22;14533;50.848;4.380;2022-09-16T06:09:07;15.00;99.90
26982;DHT22;14533;50.848;4.380;2022-09-16T06:11:38;14.90;99.90
26982;DHT22;14533;50.848;4.380;2022-09-16T06:14:05;14.70;99.90
26982;DHT22;14533;50.848;4.380;2022-09-16T06:16:31;14.90;99.90
26982;DHT22;14533;50.848;4.380;2022-09-16T06:18:58;15.00;99.90
26982;DHT22;14533;50.848;4.380;2022-09-16T06:21:25;15.00;99.90
26982;DHT22;14533;50.848;4.380;2022-09-16T06:23:52;14.90;99.90
26982;DHT22;14533;50.848;4.380;2022-09-16T06:26:22;14.60;99.90
26982;DHT22;14533;50.848;4.380;2022-09-16T06:28:49;14.60;99.90
26982;DHT22;14533;50.848;4.380;2022-09-16T06:31:21;14.70;99.90
26982;DHT22;14533;50.848;4.380;2022-09-16T06:33:47;14.80;99.90
26982;DHT22;14533;50.848;4.380;2022-09-16T06:36:33;14.90;99.90
26982;DHT22;14533;50.848;4.380;2022-09-16T06:38:59;14.90;99.90
26982;DHT22;14533;50.848;4.380;2022-09-16T06:41:24;14.90;99.90
26982;DHT22;14533;50.848;4.380;2022-09-16T06:43:51;14.90;99.90
26982;DHT22;14533;50.848;4.380;2022-09-16T06:46:22;15.00;99.90
26982;DHT22;14533;50.848;4.380;2022-09-16T06:48:50;14.90;99.90
26982;DHT22;14533;50.848;4.380;2022-09-16T06:51:21;14.90;99.90
26982;DHT22;14533;50.848;4.380;2022-09-16T06:53:48;14.70;99.90
26982;DHT22;14533;50.848;4.380;2022-09-16T06:56:16;14.50;99.90
26982;DHT22;14533;50.848;4.380;2022-09-16T06:58:44;14.30;99.90
26982;DHT22;14533;50.848;4.380;2022-09-16T07:01:17;14.30;99.90
26982;DHT22;14533;50.848;4.380;2022-09-16T07:03:44;14.50;99.90
26982;DHT22;14533;50.848;4.380;2022-09-16T07:06:13;14.60;99.90
26982;DHT22;14533;50.848;4.380;2022-09-16T07:08:39;14.50;99.90
26982;DHT22;14533;50.848;4.380;2022-09-16T07:11:19;14.50;99.90
26982;DHT22;14533;50.848;4.380;2022-09-16T07:13:46;14.70;99.90
26982;DHT22;14533;50.848;4.380;2022-09-16T07:16:30;14.80;99.90
26982;DHT22;14533;50.848;4.380;2022-09-16T07:18:57;14.90;99.90
26982;DHT22;14533;50.848;4.380;2022-09-16T07:21:26;14.90;99.90
26982;DHT22;14533;50.848;4.380;2022-09-16T07:23:55;14.90;99.90
26982;DHT22;14533;50.848;4.380;2022-09-16T07:26:24;15.00;99.90
26982;DHT22;14533;50.848;4.380;2022-09-16T07:28:54;15.00;99.90
26982;DHT22;14533;50.848;4.380;2022-09-16T07:31:25;15.00;99.90
26982;DHT22;14533;50.848;4.380;2022-09-16T07:33:53;14.70;99.90
26982;DHT22;14533;50.848;4.380;2022-09-16T07:36:21;14.60;99.90
26982;DHT22;14533;50.848;4.380;2022-09-16T07:38:48;14.60;99.90
26982;DHT22;14533;50.848;4.380;2022-09-16T07:41:17;14.60;99.90
26982;DHT22;14533;50.848;4.380;2022-09-16T07:43:44;14.70;99.90
26982;DHT22;14533;50.848;4.380;2022-09-16T07:46:13;14.80;99.90
26982;DHT22;14533;50.848;4.380;2022-09-16T07:48:39;14.80;99.90
26982;DHT22;14533;50.848;4.380;2022-09-16T07:51:10;14.90;99.90
26982;DHT22;14533;50.848;4.380;2022-09-16T07:53:37;15.00;99.90
26982;DHT22;14533;50.848;4.380;2022-09-16T07:56:09;15.10;99.90
26982;DHT22;14533;50.848;4.380;2022-09-16T07:58:35;15.10;99.90
26982;DHT22;14533;50.848;4.380;2022-09-16T08:01:01;15.10;99.90
26982;DHT22;14533;50.848;4.380;2022-09-16T08:03:27;15.10;99.90
26982;DHT22;14533;50.848;4.380;2022-09-16T08:05:59;15.00;99.90
26982;DHT22;14533;50.848;4.380;2022-09-16T08:08:25;14.80;99.90
26982;DHT22;14533;50.848;4.380;2022-09-16T08:10:53;14.90;99.90
26982;DHT22;14533;50.848;4.380;2022-09-16T08:13:19;15.00;99.90
26982;DHT22;14533;50.848;4.380;2022-09-16T08:15:45;15.10;99.90
26982;DHT22;14533;50.848;4.380;2022-09-16T08:18:10;15.30;99.90
26982;DHT22;14533;50.848;4.380;2022-09-16T08:20:36;15.30;99.90
26982;DHT22;14533;50.848;4.380;2022-09-16T08:23:02;15.20;99.90
26982;DHT22;14533;50.848;4.380;2022-09-16T08:25:27;15.00;99.90
26982;DHT22;14533;50.848;4.380;2022-09-16T08:27:53;15.00;99.90
26982;DHT22;14533;50.848;4.380;2022-09-16T08:30:19;15.10;99.90
26982;DHT22;14533;50.848;4.380;2022-09-16T08:32:44;15.20;99.90
26982;DHT22;14533;50.848;4.380;2022-09-16T08:35:10;15.30;99.90
26982;DHT22;14533;50.848;4.380;2022-09-16T08:37:36;15.20;99.90
26982;DHT22;14533;50.848;4.380;2022-09-16T08:40:02;15.30;99.90
26982;DHT22;14533;50.848;4.380;2022-09-16T08:42:55;15.30;99.90
26982;DHT22;14533;50.848;4.380;2022-09-16T08:45:30;15.20;99.90
26982;DHT22;14533;50.848;4.380;2022-09-16T08:50:56;14.90;99.90
26982;DHT22;14533;50.848;4.380;2022-09-16T08:53:41;14.70;99.90
26982;DHT22;14533;50.848;4.380;2022-09-16T08:56:13;14.70;99.90
26982;DHT22;14533;50.848;4.380;2022-09-16T08:58:44;14.60;99.90
26982;DHT22;14533;50.848;4.380;2022-09-16T09:02:12;14.50;99.90
26982;DHT22;14533;50.848;4.380;2022-09-16T09:04:17;14.60;99.90
26982;DHT22;14533;50.848;4.380;2022-09-16T09:07:06;14.80;99.90
26982;DHT22;14533;50.848;4.380;2022-09-16T09:15:00;14.70;99.90
26982;DHT22;14533;50.848;4.380;2022-09-16T09:41:53;15.40;99.90
26982;DHT22;14533;50.848;4.380;2022-09-16T09:44:49;16.00;99.90
26982;DHT22;14533;50.848;4.380;2022-09-16T09:47:49;16.80;99.90
26982;DHT22;14533;50.848;4.380;2022-09-16T09:50:22;17.90;99.90
26982;DHT22;14533;50.848;4.380;2022-09-16T09:53:30;18.90;99.90
26982;DHT22;14533;50.848;4.380;2022-09-16T09:56:24;19.60;99.90
26982;DHT22;14533;50.848;4.380;2022-09-16T10:02:18;19.00;99.90
26982;DHT22;14533;50.848;4.380;2022-09-16T10:04:45;18.90;99.90
26982;DHT22;14533;50.848;4.380;2022-09-16T10:07:17;18.90;99.90
26982;DHT22;14533;50.848;4.380;2022-09-16T10:10:00;18.50;99.90
26982;DHT22;14533;50.848;4.380;2022-09-16T10:12:31;18.20;99.90
26982;DHT22;14533;50.848;4.380;2022-09-16T10:14:58;18.40;99.90
26982;DHT22;14533;50.848;4.380;2022-09-16T10:17:29;18.30;99.90
26982;DHT22;14533;50.848;4.380;2022-09-16T10:20:05;18.20;99.90
26982;DHT22;14533;50.848;4.380;2022-09-16T10:22:54;18.20;99.90
26982;DHT22;14533;50.848;4.380;2022-09-16T10:25:25;18.80;99.90
26982;DHT22;14533;50.848;4.380;2022-09-16T10:27:56;18.10;99.90
26982;DHT22;14533;50.848;4.380;2022-09-16T10:30:28;17.90;99.90
26982;DHT22;14533;50.848;4.380;2022-09-16T10:33:01;17.90;99.90
26982;DHT22;14533;50.848;4.380;2022-09-16T10:35:30;17.70;99.90
26982;DHT22;14533;50.848;4.380;2022-09-16T10:40:25;16.70;99.90
26982;DHT22;14533;50.848;4.380;2022-09-16T10:42:53;16.40;99.90
26982;DHT22;14533;50.848;4.380;2022-09-16T10:47:53;15.50;99.90
26982;DHT22;14533;50.848;4.380;2022-09-16T10:50:20;15.60;99.90
26982;DHT22;14533;50.848;4.380;2022-09-16T10:52:47;15.70;99.90
26982;DHT22;14533;50.848;4.380;2022-09-16T10:55:28;15.70;99.90
26982;DHT22;14533;50.848;4.380;2022-09-16T10:58:16;15.80;99.90
26982;DHT22;14533;50.848;4.380;2022-09-16T11:15:10;17.30;99.90
26982;DHT22;14533;50.848;4.380;2022-09-16T11:20:51;17.10;99.90
26982;DHT22;14533;50.848;4.380;2022-09-16T11:26:17;17.00;99.90
26982;DHT22;14533;50.848;4.380;2022-09-16T11:47:55;15.90;99.90
26982;DHT22;14533;50.848;4.380;2022-09-16T11:58:36;15.30;99.90
26982;DHT22;14533;50.848;4.380;2022-09-16T12:01:31;15.10;99.90
26982;DHT22;14533;50.848;4.380;2022-09-16T12:07:02;14.60;99.90
26982;DHT22;14533;50.848;4.380;2022-09-16T12:09:40;14.50;99.90
26982;DHT22;14533;50.848;4.380;2022-09-16T12:12:16;14.50;99.90
26982;DHT22;14533;50.848;4.380;2022-09-16T12:14:50;14.60;99.90
26982;DHT22;14533;50.848;4.380;2022-09-16T12:17:28;14.40;99.90
26982;DHT22;14533;50.848;4.380;2022-09-16T12:19:59;14.40;99.90
26982;DHT22;14533;50.848;4.380;2022-09-16T12:23:09;14.20;99.90
26982;DHT22;14533;50.848;4.380;2022-09-16T12:28:51;14.30;99.90
26982;DHT22;14533;50.848;4.380;2022-09-16T12:33:58;14.80;99.90
26982;DHT22;14533;50.848;4.380;2022-09-16T12:36:34;14.90;99.90
26982;DHT22;14533;50.848;4.380;2022-09-16T12:39:01;14.70;99.90
26982;DHT22;14533;50.848;4.380;2022-09-16T12:47:08;15.00;99.90
26982;DHT22;14533;50.848;4.380;2022-09-16T13:01:43;15.90;99.90
26982;DHT22;14533;50.848;4.380;2022-09-16T13:04:23;15.50;99.90
26982;DHT22;14533;50.848;4.380;2022-09-16T13:06:53;15.50;99.90
26982;DHT22;14533;50.848;4.380;2022-09-16T13:09:29;15.50;99.90
26982;DHT22;14533;50.848;4.380;2022-09-16T13:12:02;15.60;99.90
26982;DHT22;14533;50.848;4.380;2022-09-16T13:14:43;15.60;99.90
26982;DHT22;14533;50.848;4.380;2022-09-16T13:17:11;16.00;99.90
26982;DHT22;14533;50.848;4.380;2022-09-16T13:22:29;16.10;99.90
26982;DHT22;14533;50.848;4.380;2022-09-16T13:25:27;16.30;99.90
26982;DHT22;14533;50.848;4.380;2022-09-16T13:27:57;16.70;99.90
26982;DHT22;14533;50.848;4.380;2022-09-16T13:30:34;16.80;99.90
26982;DHT22;14533;50.848;4.380;2022-09-16T13:33:21;16.40;99.90
26982;DHT22;14533;50.848;4.380;2022-09-16T13:36:00;16.40;99.90
26982;DHT22;14533;50.848;4.380;2022-09-16T13:38:39;16.60;99.90
26982;DHT22;14533;50.848;4.380;2022-09-16T13:41:05;16.20;99.90
26982;DHT22;14533;50.848;4.380;2022-09-16T13:43:34;15.50;99.90
26982;DHT22;14533;50.848;4.380;2022-09-16T13:46:25;14.80;99.90
26982;DHT22;14533;50.848;4.380;2022-09-16T13:49:10;14.40;99.90
26982;DHT22;14533;50.848;4.380;2022-09-16T13:51:41;14.50;99.90
26982;DHT22;14533;50.848;4.380;2022-09-16T13:54:24;14.40;99.90
26982;DHT22;14533;50.848;4.380;2022-09-16T14:11:17;16.40;99.90
26982;DHT22;14533;50.848;4.380;2022-09-16T14:13:54;16.30;99.90
26982;DHT22;14533;50.848;4.380;2022-09-16T14:16:27;16.40;99.90
26982;DHT22;14533;50.848;4.380;2022-09-16T14:19:05;17.10;99.90
26982;DHT22;14533;50.848;4.380;2022-09-16T14:21:31;17.50;99.90
26982;DHT22;14533;50.848;4.380;2022-09-16T14:24:33;18.00;99.90
26982;DHT22;14533;50.848;4.380;2022-09-16T14:26:59;17.90;99.90
26982;DHT22;14533;50.848;4.380;2022-09-16T14:29:25;18.40;99.90
26982;DHT22;14533;50.848;4.380;2022-09-16T14:31:54;18.80;99.90
26982;DHT22;14533;50.848;4.380;2022-09-16T14:34:31;18.50;99.90
26982;DHT22;14533;50.848;4.380;2022-09-16T14:36:58;17.60;99.90
26982;DHT22;14533;50.848;4.380;2022-09-16T14:39:26;17.00;99.90
26982;DHT22;14533;50.848;4.380;2022-09-16T14:44:20;17.30;99.90
26982;DHT22;14533;50.848;4.380;2022-09-16T14:49:16;17.00;99.90
26982;DHT22;14533;50.848;4.380;2022-09-16T14:51:48;16.80;99.90
26982;DHT22;14533;50.848;4.380;2022-09-16T14:54:20;16.50;99.90
26982;DHT22;14533;50.848;4.380;2022-09-16T14:56:53;16.40;99.90
26982;DHT22;14533;50.848;4.380;2022-09-16T14:59:19;15.80;99.90
26982;DHT22;14533;50.848;4.380;2022-09-16T15:01:47;16.30;99.90
26982;DHT22;14533;50.848;4.380;2022-09-16T15:04:23;16.50;99.90
26982;DHT22;14533;50.848;4.380;2022-09-16T15:06:52;17.10;99.90
26982;DHT22;14533;50.848;4.380;2022-09-16T15:09:47;17.30;99.90
26982;DHT22;14533;50.848;4.380;2022-09-16T15:12:22;18.40;99.90
26982;DHT22;14533;50.848;4.380;2022-09-16T15:14:49;19.30;99.90
26982;DHT22;14533;50.848;4.380;2022-09-16T15:17:18;18.40;99.90
26982;DHT22;14533;50.848;4.380;2022-09-16T15:19:50;17.30;99.90
26982;DHT22;14533;50.848;4.380;2022-09-16T15:22:20;17.50;99.90
26982;DHT22;14533;50.848;4.380;2022-09-16T15:24:48;18.00;99.90
26982;DHT22;14533;50.848;4.380;2022-09-16T15:27:22;18.00;99.90
26982;DHT22;14533;50.848;4.380;2022-09-16T15:29:53;18.10;99.90
26982;DHT22;14533;50.848;4.380;2022-09-16T15:32:22;18.00;99.90
26982;DHT22;14533;50.848;4.380;2022-09-16T15:35:12;17.80;99.90
26982;DHT22;14533;50.848;4.380;2022-09-16T15:37:41;17.70;99.90
26982;DHT22;14533;50.848;4.380;2022-09-16T15:40:31;17.80;99.90
26982;DHT22;14533;50.848;4.380;2022-09-16T15:43:17;17.10;99.90
26982;DHT22;14533;50.848;4.380;2022-09-16T15:45:57;17.10;99.90
26982;DHT22;14533;50.848;4.380;2022-09-16T15:48:24;16.90;99.90
26982;DHT22;14533;50.848;4.380;2022-09-16T15:50:54;16.50;99.90
26982;DHT22;14533;50.848;4.380;2022-09-16T15:56:18;16.20;99.90
26982;DHT22;14533;50.848;4.380;2022-09-16T15:58:47;16.60;99.90
26982;DHT22;14533;50.848;4.380;2022-09-16T16:01:59;17.10;99.90
26982;DHT22;14533;50.848;4.380;2022-09-16T16:04:06;17.30;99.90
26982;DHT22;14533;50.848;4.380;2022-09-16T16:06:44;17.10;99.90
26982;DHT22;14533;50.848;4.380;2022-09-16T16:09:43;16.60;99.90
26982;DHT22;14533;50.848;4.380;2022-09-16T16:12:12;16.60;99.90
26982;DHT22;14533;50.848;4.380;2022-09-16T16:14:41;16.50;99.90
26982;DHT22;14533;50.848;4.380;2022-09-16T16:17:13;16.50;99.90
26982;DHT22;14533;50.848;4.380;2022-09-16T16:19:44;16.00;99.90
26982;DHT22;14533;50.848;4.380;2022-09-16T16:22:10;15.90;99.90
26982;DHT22;14533;50.848;4.380;2022-09-16T16:24:36;15.40;99.90
26982;DHT22;14533;50.848;4.380;2022-09-16T16:27:03;15.10;99.90
26982;DHT22;14533;50.848;4.380;2022-09-16T16:29:31;14.80;99.90
26982;DHT22;14533;50.848;4.380;2022-09-16T16:32:16;14.80;99.90
26982;DHT22;14533;50.848;4.380;2022-09-16T16:34:43;15.20;99.90
26982;DHT22;14533;50.848;4.380;2022-09-16T16:37:10;15.40;99.90
26982;DHT22;14533;50.848;4.380;2022-09-16T16:39:37;15.30;99.90
26982;DHT22;14533;50.848;4.380;2022-09-16T16:42:04;15.20;99.90
26982;DHT22;14533;50.848;4.380;2022-09-16T16:44:34;15.10;99.90
26982;DHT22;14533;50.848;4.380;2022-09-16T16:47:00;15.10;99.90
26982;DHT22;14533;50.848;4.380;2022-09-16T16:49:26;14.60;99.90
26982;DHT22;14533;50.848;4.380;2022-09-16T16:51:52;14.50;99.90
26982;DHT22;14533;50.848;4.380;2022-09-16T16:54:22;14.60;99.90
26982;DHT22;14533;50.848;4.380;2022-09-16T16:56:49;14.40;99.90
26982;DHT22;14533;50.848;4.380;2022-09-16T16:59:15;14.20;99.90
26982;DHT22;14533;50.848;4.380;2022-09-16T17:01:41;14.00;99.90
26982;DHT22;14533;50.848;4.380;2022-09-16T17:04:08;14.00;99.90
26982;DHT22;14533;50.848;4.380;2022-09-16T17:06:34;14.00;99.90
26982;DHT22;14533;50.848;4.380;2022-09-16T17:09:06;13.70;99.90
26982;DHT22;14533;50.848;4.380;2022-09-16T17:11:32;13.50;99.90
26982;DHT22;14533;50.848;4.380;2022-09-16T17:14:00;13.40;99.90
26982;DHT22;14533;50.848;4.380;2022-09-16T17:16:28;13.50;99.90
26982;DHT22;14533;50.848;4.380;2022-09-16T17:18:57;13.50;99.90
26982;DHT22;14533;50.848;4.380;2022-09-16T17:21:31;13.50;99.90
26982;DHT22;14533;50.848;4.380;2022-09-16T17:23:58;13.40;99.90
26982;DHT22;14533;50.848;4.380;2022-09-16T17:26:24;13.40;99.90
26982;DHT22;14533;50.848;4.380;2022-09-16T17:28:54;13.40;99.90
26982;DHT22;14533;50.848;4.380;2022-09-16T17:31:29;13.40;99.90
26982;DHT22;14533;50.848;4.380;2022-09-16T17:33:55;13.30;99.90
26982;DHT22;14533;50.848;4.380;2022-09-16T17:36:22;13.40;99.90
26982;DHT22;14533;50.848;4.380;2022-09-16T17:39:01;13.40;99.90
26982;DHT22;14533;50.848;4.380;2022-09-16T17:41:28;13.30;99.90
26982;DHT22;14533;50.848;4.380;2022-09-16T17:43:55;13.30;99.90
26982;DHT22;14533;50.848;4.380;2022-09-16T17:46:22;13.40;99.90
26982;DHT22;14533;50.848;4.380;2022-09-16T17:48:57;13.40;99.90
26982;DHT22;14533;50.848;4.380;2022-09-16T17:51:26;13.50;99.90
26982;DHT22;14533;50.848;4.380;2022-09-16T17:53:52;13.70;99.90
26982;DHT22;14533;50.848;4.380;2022-09-16T17:56:17;13.70;99.90
26982;DHT22;14533;50.848;4.380;2022-09-16T17:58:45;14.00;99.90
26982;DHT22;14533;50.848;4.380;2022-09-16T18:01:11;13.90;99.90
26982;DHT22;14533;50.848;4.380;2022-09-16T18:03:39;13.60;99.90
26982;DHT22;14533;50.848;4.380;2022-09-16T18:06:12;13.50;99.90
26982;DHT22;14533;50.848;4.380;2022-09-16T18:08:39;13.40;99.90
26982;DHT22;14533;50.848;4.380;2022-09-16T18:11:06;13.40;99.90
26982;DHT22;14533;50.848;4.380;2022-09-16T18:13:33;13.30;99.90
26982;DHT22;14533;50.848;4.380;2022-09-16T18:16:11;13.30;99.90
26982;DHT22;14533;50.848;4.380;2022-09-16T18:18:38;13.50;99.90
26982;DHT22;14533;50.848;4.380;2022-09-16T18:21:06;13.40;99.90
26982;DHT22;14533;50.848;4.380;2022-09-16T18:23:32;13.30;99.90
26982;DHT22;14533;50.848;4.380;2022-09-16T18:26:09;13.50;99.90
26982;DHT22;14533;50.848;4.380;2022-09-16T18:28:43;13.90;99.90
26982;DHT22;14533;50.848;4.380;2022-09-16T18:31:11;14.10;99.90
26982;DHT22;14533;50.848;4.380;2022-09-16T18:33:38;13.90;99.90
26982;DHT22;14533;50.848;4.380;2022-09-16T18:36:06;13.90;99.90
26982;DHT22;14533;50.848;4.380;2022-09-16T18:38:32;14.20;99.90
26982;DHT22;14533;50.848;4.380;2022-09-16T18:43:32;14.30;99.90
26982;DHT22;14533;50.848;4.380;2022-09-16T18:46:20;14.20;99.90
26982;DHT22;14533;50.848;4.380;2022-09-16T18:48:47;14.10;99.90
26982;DHT22;14533;50.848;4.380;2022-09-16T18:51:18;14.00;99.90
26982;DHT22;14533;50.848;4.380;2022-09-16T18:53:46;14.00;99.90
26982;DHT22;14533;50.848;4.380;2022-09-16T18:56:14;14.10;99.90
26982;DHT22;14533;50.848;4.380;2022-09-16T18:58:40;14.30;99.90
26982;DHT22;14533;50.848;4.380;2022-09-16T19:01:27;14.20;99.90